Time;durP1;ratioP1;P1;durP2;ratioP2;P2;SDS_P1;SDS_P2;PMS_P1;PMS_P2;Temp;Humidity;BMP_temperature;BMP_pressure;BME280_temperature;BME280_humidity;BME280_pressure;Samples;Min_cycle;Max_cycle;Signal;HPM_P1;HPM_P2
2022/08/16 00:00:17;;;;;;;12.60;11.40;;;;;;;18.64;100.00;98077.98;105318;1271;76307;-78
2022/08/16 00:03:04;;;;;;;13.60;12.20;;;;;;;18.59;100.00;98081.99;105325;1271;70592;-83
2022/08/16 00:05:31;;;;;;;12.90;11.50;;;;;;;18.57;100.00;98080.99;105491;1271;73282;-72
2022/08/16 00:07:58;;;;;;;13.80;12.40;;;;;;;18.56;100.00;98074.73;105279;1271;61262;-72
2022/08/16 00:10:27;;;;;;;13.30;12.10;;;;;;;18.55;100.00;98074.52;105274;1271;61849;-71
2022/08/16 00:12:55;;;;;;;12.50;11.30;;;;;;;18.52;100.00;98076.41;105376;1270;75090;-71
2022/08/16 00:15:33;;;;;;;12.90;11.70;;;;;;;18.49;100.00;98073.42;105284;1270;68900;-71
2022/08/16 00:18:00;;;;;;;13.20;12.00;;;;;;;18.44;100.00;98072.34;105193;1271;74141;-72
2022/08/16 00:20:26;;;;;;;13.70;12.30;;;;;;;18.39;100.00;98071.08;105201;1270;61237;-73
2022/08/16 00:22:53;;;;;;;13.50;12.20;;;;;;;18.37;100.00;98071.35;105253;1270;61371;-71
2022/08/16 00:25:22;;;;;;;13.70;12.50;;;;;;;18.36;100.00;98075.55;105236;1271;61374;-73
2022/08/16 00:27:48;;;;;;;13.10;11.80;;;;;;;18.35;100.00;98079.11;105404;1269;69165;-72
2022/08/16 00:30:17;;;;;;;12.50;11.30;;;;;;;18.30;100.00;98087.20;105272;1271;73156;-72
2022/08/16 00:32:46;;;;;;;13.40;12.10;;;;;;;18.26;100.00;98090.58;105365;1270;61266;-71
2022/08/16 00:35:17;;;;;;;12.90;11.70;;;;;;;18.21;100.00;98089.19;105236;1269;61581;-73
2022/08/16 00:37:45;;;;;;;12.40;11.20;;;;;;;18.18;100.00;98085.02;105273;1271;76147;-72
2022/08/16 00:40:18;;;;;;;12.80;11.60;;;;;;;18.15;100.00;98083.13;105326;1268;70543;-73
2022/08/16 00:42:45;;;;;;;11.50;10.40;;;;;;;18.11;100.00;98084.16;105199;1268;73163;-71
2022/08/16 00:45:40;;;;;;;13.60;12.30;;;;;;;18.08;100.00;98086.87;105137;1268;61510;-73
2022/08/16 00:48:09;;;;;;;12.20;11.00;;;;;;;18.05;100.00;98088.11;105227;1268;61258;-72
2022/08/16 00:50:38;;;;;;;13.30;11.90;;;;;;;18.03;100.00;98091.02;105270;1271;76258;-72
2022/08/16 00:53:08;;;;;;;13.60;12.30;;;;;;;17.98;100.00;98090.25;105273;1271;70367;-72
2022/08/16 00:55:40;;;;;;;12.30;11.20;;;;;;;17.93;100.00;98090.33;105232;1271;73168;-71
2022/08/16 00:58:08;;;;;;;11.70;10.60;;;;;;;17.88;100.00;98084.91;105237;1268;61373;-73
2022/08/16 01:00:35;;;;;;;13.00;11.70;;;;;;;17.85;100.00;98083.67;105221;1268;61694;-73
2022/08/16 01:03:07;;;;;;;13.40;12.00;;;;;;;17.82;100.00;98081.15;105197;1268;75744;-73
2022/08/16 01:05:35;;;;;;;13.00;11.60;;;;;;;17.76;100.00;98084.77;105198;1268;69646;-71
2022/08/16 01:08:03;;;;;;;13.10;11.80;;;;;;;17.71;100.00;98088.42;104916;1272;74407;-71
2022/08/16 01:10:32;;;;;;;14.00;12.60;;;;;;;17.68;100.00;98091.31;105527;1268;61621;-71
2022/08/16 01:13:16;;;;;;;14.40;12.90;;;;;;;17.65;100.00;98094.28;105297;1268;61803;-71
2022/08/16 01:15:48;;;;;;;13.60;12.40;;;;;;;17.64;100.00;98098.77;104983;1269;74882;-71
2022/08/16 01:18:18;;;;;;;13.10;11.90;;;;;;;17.63;100.00;98103.01;105206;1269;70140;-70
2022/08/16 01:20:55;;;;;;;;;;;;;;;17.61;100.00;98105.34;105169;1271;71614;-71
2022/08/16 01:23:30;;;;;;;13.40;12.00;;;;;;;17.60;100.00;98106.88;105200;1268;61357;-71
2022/08/16 01:25:58;;;;;;;15.80;13.30;;;;;;;17.61;100.00;98103.56;105211;1268;61287;-71
2022/08/16 01:28:26;;;;;;;12.80;11.50;;;;;;;17.61;100.00;98102.66;105229;1271;76342;-71
2022/08/16 01:30:56;;;;;;;13.20;11.90;;;;;;;17.59;100.00;98112.71;105203;1269;69256;-71
2022/08/16 01:33:23;;;;;;;14.10;11.50;;;;;;;17.56;100.00;98124.25;105611;1268;73183;-71
2022/08/16 01:35:57;;;;;;;12.80;11.70;;;;;;;17.49;100.00;98121.77;105271;1268;61180;-71
2022/08/16 01:38:25;;;;;;;16.30;14.20;;;;;;;17.44;100.00;98112.61;105246;1269;61445;-72
2022/08/16 01:41:02;;;;;;;13.90;12.50;;;;;;;17.43;100.00;98105.50;105221;1268;76229;-71
2022/08/16 01:43:31;;;;;;;13.10;11.80;;;;;;;17.41;100.00;98108.67;105237;1268;69181;-72
2022/08/16 01:46:15;;;;;;;14.10;12.70;;;;;;;17.35;100.00;98105.53;105284;1268;72684;-71
2022/08/16 01:48:42;;;;;;;14.80;13.40;;;;;;;17.30;100.00;98099.01;105233;1268;61339;-71
2022/08/16 01:51:10;;;;;;;15.80;14.10;;;;;;;17.30;100.00;98099.98;105247;1268;61392;-71
2022/08/16 01:53:36;;;;;;;13.30;11.60;;;;;;;17.28;100.00;98099.40;105253;1268;74588;-71
2022/08/16 01:56:03;;;;;;;13.50;12.30;;;;;;;17.25;100.00;98099.36;105280;1268;69185;-70
2022/08/16 01:58:30;;;;;;;13.10;11.80;;;;;;;17.22;100.00;98095.73;105234;1268;72087;-71
2022/08/16 02:00:56;;;;;;;13.00;11.80;;;;;;;17.17;100.00;98099.35;105222;1268;61312;-72
2022/08/16 02:03:23;;;;;;;13.50;12.10;;;;;;;17.13;100.00;98111.84;105238;1268;61278;-73
2022/08/16 02:05:50;;;;;;;13.50;12.30;;;;;;;17.07;100.00;98116.20;105276;1268;75162;-72
2022/08/16 02:08:16;;;;;;;16.30;14.70;;;;;;;17.05;100.00;98112.70;105261;1268;69162;-72
2022/08/16 02:10:43;;;;;;;16.10;14.50;;;;;;;17.05;100.00;98109.42;105244;1268;72609;-73
2022/08/16 02:13:10;;;;;;;16.20;13.80;;;;;;;17.05;100.00;98113.37;105243;1268;61270;-70
2022/08/16 02:15:37;;;;;;;15.70;14.30;;;;;;;17.05;100.00;98118.14;104959;1268;61271;-71
2022/08/16 02:18:04;;;;;;;15.90;14.20;;;;;;;17.02;100.00;98114.44;105261;1268;76206;-72
2022/08/16 02:20:34;;;;;;;16.10;14.50;;;;;;;17.01;100.00;98116.76;105253;1268;68258;-72
2022/08/16 02:23:01;;;;;;;16.60;14.90;;;;;;;16.98;100.00;98112.92;105549;1268;74393;-71
2022/08/16 02:25:28;;;;;;;17.40;15.70;;;;;;;16.98;100.00;98115.64;105233;1268;61429;-71
2022/08/16 02:27:55;;;;;;;16.70;15.10;;;;;;;16.97;100.00;98112.66;104998;1268;61374;-71
2022/08/16 02:30:28;;;;;;;16.10;14.50;;;;;;;17.00;100.00;98112.76;105209;1268;76182;-71
2022/08/16 02:32:55;;;;;;;15.50;14.00;;;;;;;16.99;100.00;98112.08;105227;1268;70279;-72
2022/08/16 02:35:24;;;;;;;15.50;13.90;;;;;;;16.96;100.00;98112.64;105223;1268;73665;-72
2022/08/16 02:37:52;;;;;;;14.60;13.10;;;;;;;16.93;100.00;98112.41;105298;1268;61314;-72
2022/08/16 02:40:21;;;;;;;14.40;13.00;;;;;;;16.91;100.00;98114.25;105205;1268;62787;-72
2022/08/16 02:42:48;;;;;;;15.60;13.80;;;;;;;16.88;100.00;98120.94;105229;1268;75990;-72
2022/08/16 02:45:17;;;;;;;15.20;13.60;;;;;;;16.85;100.00;98117.88;105226;1269;70156;-72
2022/08/16 02:47:43;;;;;;;15.50;13.90;;;;;;;16.83;100.00;98117.22;105323;1268;73190;-72
2022/08/16 02:50:10;;;;;;;14.80;13.40;;;;;;;16.82;100.00;98118.96;105254;1268;61249;-72
2022/08/16 02:52:37;;;;;;;15.40;14.00;;;;;;;16.82;100.00;98117.69;105289;1268;61287;-71
2022/08/16 02:55:05;;;;;;;13.40;12.00;;;;;;;16.82;100.00;98115.86;105276;1268;76114;-72
2022/08/16 02:57:32;;;;;;;13.80;12.40;;;;;;;16.80;100.00;98121.45;105257;1268;70189;-72
2022/08/16 02:59:59;;;;;;;13.60;12.30;;;;;;;16.78;100.00;98120.47;105198;1268;73945;-71
2022/08/16 03:02:26;;;;;;;13.50;12.10;;;;;;;16.75;100.00;98119.99;105229;1268;61354;-73
2022/08/16 03:04:53;;;;;;;11.80;10.60;;;;;;;16.71;100.00;98116.68;105229;1268;61356;-71
2022/08/16 03:07:19;;;;;;;11.80;10.70;;;;;;;16.64;100.00;98117.37;105228;1268;61276;-71
2022/08/16 03:09:46;;;;;;;11.90;10.80;;;;;;;16.58;100.00;98119.09;105196;1268;69199;-71
2022/08/16 03:12:13;;;;;;;12.00;10.90;;;;;;;16.48;100.00;98120.16;105250;1269;73662;-72
2022/08/16 03:14:39;;;;;;;14.10;11.70;;;;;;;16.43;100.00;98118.93;105203;1268;61280;-71
2022/08/16 03:17:06;;;;;;;15.90;12.50;;;;;;;16.41;100.00;98120.33;105242;1268;61269;-70
2022/08/16 03:19:33;;;;;;;14.80;13.30;;;;;;;16.40;100.00;98122.05;105214;1268;75109;-71
2022/08/16 03:21:59;;;;;;;12.20;10.90;;;;;;;16.36;100.00;98124.51;105162;1271;68632;-71
2022/08/16 03:24:27;;;;;;;13.50;10.50;;;;;;;16.30;100.00;98121.02;105238;1268;61369;-71
2022/08/16 03:26:56;;;;;;;13.80;12.20;;;;;;;16.25;100.00;98124.55;105256;1269;61377;-72
2022/08/16 03:29:23;;;;;;;16.00;14.20;;;;;;;16.20;100.00;98122.73;105299;1268;61361;-72
2022/08/16 03:31:50;;;;;;;14.10;12.70;;;;;;;16.19;100.00;98125.53;105242;1268;76068;-71
2022/08/16 03:34:17;;;;;;;15.90;13.80;;;;;;;16.20;100.00;98128.97;105245;1268;69311;-71
2022/08/16 03:36:43;;;;;;;15.50;13.80;;;;;;;16.20;100.00;98125.90;105229;1268;61357;-71
2022/08/16 03:39:10;;;;;;;16.00;13.70;;;;;;;16.22;100.00;98127.70;105270;1268;62682;-71
2022/08/16 03:41:37;;;;;;;17.10;15.00;;;;;;;16.25;100.00;98127.62;105254;1268;61218;-71
2022/08/16 03:44:06;;;;;;;18.00;13.70;;;;;;;16.29;100.00;98125.21;104996;1268;61417;-71
2022/08/16 03:46:34;;;;;;;14.80;13.30;;;;;;;16.31;100.00;98132.92;105244;1268;70167;-72
2022/08/16 03:49:01;;;;;;;16.70;14.90;;;;;;;16.30;100.00;98131.98;105331;1268;74177;-72
2022/08/16 03:51:28;;;;;;;16.60;14.20;;;;;;;16.29;100.00;98128.43;105650;1268;61232;-71
2022/08/16 03:53:56;;;;;;;18.30;15.80;;;;;;;16.30;100.00;98134.13;105208;1268;61327;-71
2022/08/16 03:56:25;;;;;;;16.00;14.40;;;;;;;16.32;100.00;98134.75;105285;1268;75133;-72
2022/08/16 03:58:53;;;;;;;14.40;12.90;;;;;;;16.36;100.00;98134.52;105275;1268;69211;-72
2022/08/16 04:01:21;;;;;;;17.00;15.30;;;;;;;16.39;100.00;98130.48;105253;1268;73358;-72
2022/08/16 04:03:49;;;;;;;17.40;15.50;;;;;;;16.50;100.00;98136.50;105407;1268;61361;-72
2022/08/16 04:06:16;;;;;;;16.20;14.50;;;;;;;16.58;100.00;98132.98;105217;1268;61256;-72
2022/08/16 04:08:43;;;;;;;14.00;12.60;;;;;;;16.62;100.00;98133.39;105214;1268;75033;-72
2022/08/16 04:11:09;;;;;;;15.00;13.40;;;;;;;16.65;100.00;98136.44;105275;1268;61364;-72
2022/08/16 04:13:36;;;;;;;15.10;13.70;;;;;;;16.74;100.00;98137.18;105219;1268;61225;-73
2022/08/16 04:16:02;;;;;;;16.40;14.70;;;;;;;16.88;100.00;98136.81;105233;1268;61230;-72
2022/08/16 04:18:30;;;;;;;15.50;13.80;;;;;;;17.11;100.00;98136.13;105258;1268;61719;-71
2022/08/16 04:20:57;;;;;;;15.40;13.90;;;;;;;17.45;100.00;98130.20;105046;1271;75651;-71
2022/08/16 04:23:24;;;;;;;13.60;12.20;;;;;;;17.92;100.00;98134.97;105041;1271;70336;-71
2022/08/16 04:25:51;;;;;;;12.80;11.60;;;;;;;18.35;100.00;98138.77;105237;1268;61284;-72
2022/08/16 04:28:17;;;;;;;12.70;11.60;;;;;;;18.76;100.00;98143.39;105243;1268;61282;-72
2022/08/16 04:30:44;;;;;;;11.20;10.20;;;;;;;19.16;100.00;98141.97;105252;1268;61317;-73
2022/08/16 04:33:10;;;;;;;10.30;9.40;;;;;;;19.63;100.00;98145.34;105254;1268;61376;-72
2022/08/16 04:35:38;;;;;;;10.40;9.50;;;;;;;20.11;100.00;98143.54;105229;1268;61255;-71
2022/08/16 04:38:04;;;;;;;10.80;9.90;;;;;;;20.55;100.00;98137.45;105230;1268;74347;-71
2022/08/16 04:40:31;;;;;;;12.40;10.50;;;;;;;20.93;100.00;98142.82;105251;1268;61300;-71
2022/08/16 04:42:59;;;;;;;11.10;10.00;;;;;;;21.24;100.00;98140.06;105037;1271;61270;-73
2022/08/16 04:45:27;;;;;;;10.90;10.00;;;;;;;21.44;100.00;98149.25;105304;1268;76681;-69
2022/08/16 04:47:54;;;;;;;12.50;11.30;;;;;;;21.76;100.00;98155.87;105378;1268;69276;-70
2022/08/16 04:50:25;;;;;;;11.80;10.70;;;;;;;22.06;100.00;98156.20;105225;1268;61400;-70
2022/08/16 04:52:52;;;;;;;11.40;10.50;;;;;;;22.30;100.00;98156.13;105415;1268;61339;-70
2022/08/16 04:55:24;;;;;;;13.20;12.00;;;;;;;22.87;100.00;98150.79;105230;1268;61433;-70
2022/08/16 04:57:52;;;;;;;11.00;10.10;;;;;;;23.46;100.00;98148.41;105349;1268;76299;-71
2022/08/16 05:00:23;;;;;;;11.10;10.10;;;;;;;23.80;100.00;98149.60;105464;1268;69238;-70
2022/08/16 05:02:52;;;;;;;10.90;9.80;;;;;;;24.05;100.00;98152.59;105267;1268;73780;-73
2022/08/16 05:05:20;;;;;;;11.30;10.20;;;;;;;24.32;100.00;98157.60;105326;1268;61325;-73
2022/08/16 05:07:48;;;;;;;10.50;9.60;;;;;;;24.58;100.00;98156.36;105308;1268;61287;-73
2022/08/16 05:10:15;;;;;;;11.60;10.50;;;;;;;24.90;100.00;98160.81;105342;1268;75555;-72
2022/08/16 05:12:42;;;;;;;9.90;8.90;;;;;;;25.22;100.00;98158.56;105312;1268;70207;-73
2022/08/16 05:15:10;;;;;;;12.10;9.20;;;;;;;25.41;100.00;98155.48;105228;1269;72583;-73
2022/08/16 05:17:36;;;;;;;10.10;9.00;;;;;;;25.54;100.00;98159.98;105258;1268;61380;-73
2022/08/16 05:20:07;;;;;;;8.40;7.70;;;;;;;25.71;100.00;98165.20;105248;1268;61147;-73
2022/08/16 05:22:35;;;;;;;8.80;8.10;;;;;;;25.81;100.00;98170.48;105277;1268;75086;-73
2022/08/16 05:25:03;;;;;;;9.10;8.40;;;;;;;25.96;100.00;98168.30;105344;1268;69176;-73
2022/08/16 05:27:31;;;;;;;9.50;8.70;;;;;;;26.19;100.00;98168.15;105281;1268;73896;-73
2022/08/16 05:29:57;;;;;;;8.60;7.80;;;;;;;26.30;100.00;98173.22;105050;1268;61444;-73
2022/08/16 05:32:24;;;;;;;9.70;8.70;;;;;;;26.34;100.00;98178.27;105242;1268;61225;-73
2022/08/16 05:34:51;;;;;;;8.10;7.40;;;;;;;26.47;100.00;98183.20;105259;1268;75341;-73
2022/08/16 05:37:17;;;;;;;8.80;8.10;;;;;;;26.56;100.00;98191.46;105263;1268;61280;-73
2022/08/16 05:39:44;;;;;;;9.40;8.60;;;;;;;26.61;100.00;98190.90;105289;1268;61150;-73
2022/08/16 05:42:10;;;;;;;9.90;9.00;;;;;;;26.64;100.00;98188.36;104994;1268;61349;-73
2022/08/16 05:44:37;;;;;;;9.80;8.80;;;;;;;26.65;100.00;98185.27;105257;1268;61169;-72
2022/08/16 05:47:04;;;;;;;8.80;8.10;;;;;;;26.69;100.00;98183.80;105243;1268;75978;-73
2022/08/16 05:49:30;;;;;;;9.30;8.50;;;;;;;26.70;100.00;98189.14;105237;1268;69717;-73
2022/08/16 05:51:58;;;;;;;9.40;8.30;;;;;;;26.68;100.00;98190.73;105241;1268;73680;-72
2022/08/16 05:54:27;;;;;;;9.00;8.10;;;;;;;26.54;100.00;98190.84;105184;1268;61373;-72
2022/08/16 05:56:55;;;;;;;8.30;7.60;;;;;;;26.44;100.00;98187.60;105224;1268;61302;-72
2022/08/16 05:59:23;;;;;;;8.70;7.90;;;;;;;26.22;100.00;98185.86;105258;1267;75117;-73
2022/08/16 06:01:50;;;;;;;8.30;7.50;;;;;;;26.18;100.00;98189.34;105065;1269;69062;-72
2022/08/16 06:04:18;;;;;;;9.80;8.80;;;;;;;26.04;100.00;98189.78;105309;1268;73127;-74
2022/08/16 06:06:46;;;;;;;9.80;8.90;;;;;;;26.13;100.00;98193.16;105299;1268;61304;-73
2022/08/16 06:09:15;;;;;;;10.60;9.50;;;;;;;26.13;100.00;98194.50;105062;1268;61157;-73
2022/08/16 06:11:43;;;;;;;10.80;9.80;;;;;;;26.16;100.00;98196.37;105372;1268;76276;-72
2022/08/16 06:14:09;;;;;;;11.70;9.20;;;;;;;26.22;100.00;98197.88;105258;1268;69558;-72
2022/08/16 06:16:37;;;;;;;11.60;9.20;;;;;;;26.24;100.00;98197.71;105301;1268;72069;-72
2022/08/16 06:19:03;;;;;;;12.20;9.40;;;;;;;26.24;100.00;98196.25;105401;1269;61300;-73
2022/08/16 06:21:30;;;;;;;11.00;9.30;;;;;;;26.20;100.00;98202.56;105250;1271;61304;-72
2022/08/16 06:23:56;;;;;;;10.70;9.60;;;;;;;26.35;100.00;98200.88;105238;1271;75282;-73
2022/08/16 06:26:23;;;;;;;9.70;8.70;;;;;;;26.65;100.00;98205.50;105167;1271;61308;-72
2022/08/16 06:28:50;;;;;;;9.70;8.80;;;;;;;26.93;100.00;98202.09;104959;1273;74408;-73
2022/08/16 06:31:16;;;;;;;10.70;9.70;;;;;;;27.14;100.00;98203.59;105275;1271;61288;-74
2022/08/16 06:33:43;;;;;;;11.00;10.00;;;;;;;27.32;100.00;98200.25;105257;1271;61263;-72
2022/08/16 06:36:11;;;;;;;9.90;9.00;;;;;;;27.47;100.00;98201.59;104983;1271;76240;-73
2022/08/16 06:38:37;;;;;;;11.10;10.00;;;;;;;27.61;100.00;98203.04;105257;1271;69433;-72
2022/08/16 06:41:07;;;;;;;11.30;10.20;;;;;;;27.66;100.00;98204.73;105258;1271;61330;-73
2022/08/16 06:43:34;;;;;;;10.40;9.50;;;;;;;27.64;100.00;98208.64;105354;1269;61281;-72
2022/08/16 06:46:04;;;;;;;11.10;10.20;;;;;;;27.67;100.00;98210.46;105284;1271;61263;-72
2022/08/16 06:48:31;;;;;;;10.90;9.90;;;;;;;27.72;100.00;98212.52;105318;1271;74652;-72
2022/08/16 06:50:58;;;;;;;10.90;9.80;;;;;;;27.88;100.00;98216.15;105362;1271;70517;-73
2022/08/16 06:53:25;;;;;;;11.50;9.90;;;;;;;27.90;100.00;98218.99;105006;1270;61360;-72
2022/08/16 06:55:57;;;;;;;11.80;10.60;;;;;;;27.89;100.00;98216.61;104972;1271;61333;-73
2022/08/16 06:58:23;;;;;;;11.30;10.30;;;;;;;27.82;100.00;98218.02;105339;1271;61121;-73
2022/08/16 07:00:50;;;;;;;12.90;11.40;;;;;;;27.56;100.00;98218.77;105287;1271;76172;-73
2022/08/16 07:03:18;;;;;;;12.70;10.80;;;;;;;27.42;100.00;98223.30;105273;1271;70106;-74
2022/08/16 07:05:45;;;;;;;15.10;11.00;;;;;;;27.25;100.00;98225.02;105047;1271;73419;-72
2022/08/16 07:08:12;;;;;;;14.50;11.00;;;;;;;27.17;100.00;98228.44;105266;1271;61269;-73
2022/08/16 07:10:38;;;;;;;12.40;11.20;;;;;;;27.03;100.00;98235.81;105284;1271;61284;-73
2022/08/16 07:13:05;;;;;;;12.00;10.90;;;;;;;26.96;100.00;98236.13;105273;1271;74599;-73
2022/08/16 07:15:31;;;;;;;12.40;11.00;;;;;;;26.79;100.00;98236.89;105317;1271;69026;-72
2022/08/16 07:18:00;;;;;;;12.70;11.20;;;;;;;26.65;100.00;98231.91;105176;1271;73625;-72
2022/08/16 07:20:27;;;;;;;12.70;11.40;;;;;;;26.59;100.00;98230.11;105243;1271;61310;-72
2022/08/16 07:22:54;;;;;;;11.50;10.40;;;;;;;26.55;100.00;98226.44;105237;1271;61157;-73
2022/08/16 07:25:21;;;;;;;11.60;10.50;;;;;;;26.36;100.00;98226.66;105287;1271;76095;-72
2022/08/16 07:27:48;;;;;;;11.80;10.70;;;;;;;26.37;100.00;98222.45;105297;1271;69197;-73
2022/08/16 07:30:17;;;;;;;12.40;10.90;;;;;;;26.35;100.00;98221.73;105260;1271;71557;-72
2022/08/16 07:32:56;;;;;;;13.00;11.80;;;;;;;26.33;100.00;98214.73;105360;1271;61398;-73
2022/08/16 07:35:25;;;;;;;12.20;11.10;;;;;;;26.27;100.00;98216.19;105300;1271;61216;-72
2022/08/16 07:37:52;;;;;;;12.60;11.00;;;;;;;26.32;100.00;98210.61;105290;1270;74865;-72
2022/08/16 07:40:18;;;;;;;11.90;10.70;;;;;;;26.35;100.00;98209.54;104954;1272;69374;-73
2022/08/16 07:42:45;;;;;;;12.30;10.90;;;;;;;26.32;100.00;98214.30;105284;1271;73747;-72
2022/08/16 07:45:13;;;;;;;12.70;11.50;;;;;;;26.34;100.00;98223.23;105276;1271;61227;-74
2022/08/16 07:47:42;;;;;;;12.30;11.10;;;;;;;26.36;100.00;98223.45;105171;1270;60533;-72
2022/08/16 07:50:11;;;;;;;12.40;11.20;;;;;;;26.44;100.00;98229.11;105023;1271;75315;-72
2022/08/16 07:52:37;;;;;;;12.60;11.30;;;;;;;26.48;100.00;98229.55;105292;1271;69460;-73
2022/08/16 07:55:05;;;;;;;12.60;11.40;;;;;;;26.54;100.00;98228.82;105281;1271;62881;-73
2022/08/16 07:57:32;;;;;;;11.70;10.60;;;;;;;26.58;100.00;98231.30;105020;1274;61329;-73
2022/08/16 07:59:59;;;;;;;12.20;11.10;;;;;;;26.62;100.00;98226.48;105284;1271;61182;-73
2022/08/16 08:02:27;;;;;;;12.40;11.30;;;;;;;26.64;100.00;98229.48;105340;1271;76391;-73
2022/08/16 08:04:55;;;;;;;10.40;9.30;;;;;;;26.67;100.00;98228.65;105331;1269;69133;-73
2022/08/16 08:07:23;;;;;;;12.40;11.10;;;;;;;26.73;100.00;98229.73;105294;1271;71879;-74
2022/08/16 08:09:51;;;;;;;12.30;11.00;;;;;;;26.79;100.00;98228.61;105428;1270;61275;-73
2022/08/16 08:12:18;;;;;;;11.80;10.70;;;;;;;26.89;100.00;98223.67;105326;1271;61705;-73
2022/08/16 08:14:46;;;;;;;12.20;11.00;;;;;;;26.94;100.00;98222.36;105308;1271;76113;-74
2022/08/16 08:17:15;;;;;;;16.40;13.10;;;;;;;27.03;100.00;98224.44;105376;1271;69147;-73
2022/08/16 08:19:41;;;;;;;12.20;11.10;;;;;;;27.12;100.00;98226.02;105360;1271;74471;-73
2022/08/16 08:22:08;;;;;;;11.70;10.60;;;;;;;27.23;100.00;98226.35;105291;1271;61241;-73
2022/08/16 08:24:37;;;;;;;12.90;11.70;;;;;;;27.32;100.00;98222.45;105346;1271;61294;-73
2022/08/16 08:27:07;;;;;;;12.60;11.10;;;;;;;27.32;100.00;98221.81;105444;1271;76087;-73
2022/08/16 08:29:35;;;;;;;18.30;13.50;;;;;;;27.37;100.00;98219.83;105352;1271;70597;-73
2022/08/16 08:32:03;;;;;;;11.60;10.50;;;;;;;27.49;100.00;98219.50;105292;1271;71446;-72
2022/08/16 08:34:29;;;;;;;13.20;10.90;;;;;;;27.56;100.00;98218.81;105276;1271;61323;-71
2022/08/16 08:36:56;;;;;;;11.90;10.10;;;;;;;27.47;100.00;98219.19;105287;1271;61193;-73
2022/08/16 08:39:22;;;;;;;11.80;10.70;;;;;;;27.47;100.00;98222.90;105282;1271;61287;-72
2022/08/16 08:41:49;;;;;;;12.10;11.00;;;;;;;27.56;100.00;98227.73;105277;1271;61995;-72
2022/08/16 08:44:15;;;;;;;32.70;15.70;;;;;;;27.62;100.00;98228.13;105279;1269;61365;-73
2022/08/16 08:46:42;;;;;;;12.20;11.00;;;;;;;27.73;100.00;98235.17;105313;1271;61407;-72
2022/08/16 08:49:09;;;;;;;12.50;11.30;;;;;;;27.82;100.00;98238.40;105311;1271;61221;-72
2022/08/16 08:51:37;;;;;;;11.20;10.10;;;;;;;27.71;100.00;98235.07;105333;1271;75500;-70
2022/08/16 08:54:07;;;;;;;11.60;10.40;;;;;;;27.73;100.00;98236.70;105293;1271;70344;-72
2022/08/16 08:56:36;;;;;;;12.50;11.10;;;;;;;27.84;100.00;98231.15;105347;1269;74244;-73
2022/08/16 08:59:07;;;;;;;11.70;10.50;;;;;;;27.93;100.00;98230.54;105073;1271;61294;-74
2022/08/16 09:01:35;;;;;;;11.60;10.40;;;;;;;28.08;100.00;98229.60;105423;1271;61405;-71
2022/08/16 09:04:04;;;;;;;10.50;9.50;;;;;;;28.15;100.00;98228.27;105274;1271;76131;-72
2022/08/16 09:06:32;;;;;;;11.00;10.10;;;;;;;28.19;100.00;98227.69;105293;1271;69881;-72
2022/08/16 09:09:00;;;;;;;10.90;9.90;;;;;;;28.18;100.00;98227.80;105152;1271;73405;-72
2022/08/16 09:11:27;;;;;;;11.60;10.50;;;;;;;28.26;100.00;98228.30;104979;1271;61380;-72
2022/08/16 09:13:54;;;;;;;11.00;10.00;;;;;;;28.34;100.00;98232.13;105364;1271;61282;-71
2022/08/16 09:16:21;;;;;;;10.90;10.10;;;;;;;28.46;100.00;98234.19;105306;1270;75937;-70
2022/08/16 09:18:47;;;;;;;11.20;10.20;;;;;;;28.61;100.00;98229.47;105280;1271;68685;-70
2022/08/16 09:21:14;;;;;;;10.60;9.70;;;;;;;28.65;100.00;98224.80;105248;1271;61284;-71
2022/08/16 09:23:41;;;;;;;10.50;9.60;;;;;;;28.79;100.00;98226.61;105045;1271;61346;-71
2022/08/16 09:26:10;;;;;;;9.90;9.10;;;;;;;28.90;100.00;98222.39;105215;1271;61964;-70
2022/08/16 09:28:38;;;;;;;12.90;10.50;;;;;;;28.94;100.00;98224.19;105273;1270;75283;-70
2022/08/16 09:31:05;;;;;;;10.60;9.60;;;;;;;29.09;100.00;98221.26;105218;1271;70179;-71
2022/08/16 09:33:32;;;;;;;9.80;8.80;;;;;;;29.25;100.00;98221.98;105193;1271;73242;-72
2022/08/16 09:35:59;;;;;;;10.20;9.30;;;;;;;29.41;100.00;98221.55;105096;1271;61250;-71
2022/08/16 09:38:27;;;;;;;8.80;8.10;;;;;;;29.57;100.00;98225.09;105284;1271;61396;-71
2022/08/16 09:40:55;;;;;;;9.90;8.30;;;;;;;29.54;100.00;98225.24;105245;1271;75542;-70
2022/08/16 09:43:23;;;;;;;9.10;8.40;;;;;;;29.44;100.00;98227.52;105274;1269;69117;-71
2022/08/16 09:45:50;;;;;;;9.10;8.20;;;;;;;29.55;100.00;98221.77;105333;1271;73908;-71
2022/08/16 09:48:17;;;;;;;9.50;8.70;;;;;;;29.58;100.00;98224.14;104345;1268;1251594;-71
2022/08/16 09:50:45;;;;;;;8.60;7.80;;;;;;;29.64;100.00;98226.48;105488;1271;61246;-71
2022/08/16 09:53:16;;;;;;;9.40;8.60;;;;;;;29.82;100.00;98223.59;105287;1271;75958;-70
2022/08/16 09:55:46;;;;;;;9.50;8.50;;;;;;;30.02;100.00;98220.43;105335;1268;69225;-71
2022/08/16 09:58:12;;;;;;;8.60;7.80;;;;;;;30.15;100.00;98212.91;105238;1271;74194;-72
2022/08/16 10:00:40;;;;;;;9.20;8.20;;;;;;;30.07;100.00;98209.25;105283;1271;61252;-71
2022/08/16 10:03:07;;;;;;;8.70;7.80;;;;;;;30.02;100.00;98207.20;105290;1271;61387;-71
2022/08/16 10:05:36;;;;;;;8.80;8.00;;;;;;;30.16;100.00;98209.47;105297;1268;75083;-72
2022/08/16 10:08:04;;;;;;;8.90;8.20;;;;;;;30.23;100.00;98211.58;105271;1269;70320;-72
2022/08/16 10:10:31;;;;;;;9.70;8.80;;;;;;;30.21;100.00;98216.59;105459;1268;73160;-71
2022/08/16 10:13:13;;;;;;;9.30;8.60;;;;;;;30.29;100.00;98220.70;105279;1271;61403;-73
2022/08/16 10:15:46;;;;;;;9.30;8.60;;;;;;;30.30;100.00;98222.37;105313;1269;61318;-72
2022/08/16 10:18:15;;;;;;;9.50;8.70;;;;;;;30.28;100.00;98224.42;105270;1271;73552;-71
2022/08/16 10:20:44;;;;;;;10.10;9.20;;;;;;;30.36;100.00;98226.31;105390;1269;69480;-72
2022/08/16 10:23:14;;;;;;;10.90;9.50;;;;;;;30.46;100.00;98232.48;105114;1271;72102;-72
2022/08/16 10:25:44;;;;;;;8.80;8.10;;;;;;;30.54;100.00;98229.95;105306;1271;61284;-71
2022/08/16 10:28:12;;;;;;;10.10;9.10;;;;;;;30.65;100.00;98227.61;105107;1271;61290;-71
2022/08/16 10:30:43;;;;;;;10.40;9.40;;;;;;;30.76;100.00;98228.92;105282;1268;75889;-71
2022/08/16 10:33:12;;;;;;;9.80;9.00;;;;;;;30.71;100.00;98227.25;105053;1271;69550;-72
2022/08/16 10:35:41;;;;;;;9.50;8.80;;;;;;;30.58;100.00;98221.73;105400;1271;74282;-72
2022/08/16 10:38:07;;;;;;;9.00;8.10;;;;;;;30.53;100.00;98218.19;105115;1271;62583;-73
2022/08/16 10:40:35;;;;;;;9.70;8.80;;;;;;;30.58;100.00;98211.33;105315;1271;61298;-71
2022/08/16 10:43:02;;;;;;;9.70;8.90;;;;;;;30.75;100.00;98211.73;105301;1268;75030;-72
2022/08/16 10:45:31;;;;;;;9.50;8.70;;;;;;;30.87;100.00;98210.04;105326;1269;70165;-72
2022/08/16 10:47:59;;;;;;;9.80;8.90;;;;;;;31.03;100.00;98218.23;105314;1269;72413;-72
2022/08/16 10:50:27;;;;;;;9.60;8.70;;;;;;;31.10;100.00;98215.95;105379;1269;61371;-72
2022/08/16 10:52:53;;;;;;;9.70;8.80;;;;;;;31.13;100.00;98215.71;105498;1268;61224;-73
2022/08/16 10:55:20;;;;;;;8.90;8.20;;;;;;;31.16;100.00;98214.83;105316;1268;75360;-71
2022/08/16 10:57:47;;;;;;;8.90;8.10;;;;;;;31.03;100.00;98218.02;105318;1268;70347;-71
2022/08/16 11:00:17;;;;;;;9.80;9.00;;;;;;;31.04;100.00;98215.83;105255;1269;74897;-70
2022/08/16 11:02:44;;;;;;;9.20;8.30;;;;;;;31.17;100.00;98211.42;105358;1270;61615;-73
2022/08/16 11:05:14;;;;;;;9.00;8.20;;;;;;;31.39;100.00;98213.81;105357;1268;61403;-73
2022/08/16 11:07:48;;;;;;;9.30;8.40;;;;;;;31.62;100.00;98207.77;105318;1268;75381;-72
2022/08/16 11:10:17;;;;;;;9.60;8.70;;;;;;;31.93;100.00;98207.87;105024;1271;70463;-72